In Rescue
 
Open Full Screen Window  High Contrast Mode
Wind Gusting 00 knots
06
May 25, 2022 11:04 PM EDT
Present Weather: Thunderstorms in the Vicinity
Weather Information
Wind Direction
  180 °
Wind Speed
  06 kt (7 mph)
Wind Gust
  00 kt (0 mph)
Altimeter
29.95 in
Visibility
10 SM
Temperature
19° C
66° F
Dewpoint
18° C
64° F
Humidity
94%
Sky Condition
Scattered @ 5,500 ft
Scattered @ 3,200 ft
Scattered @ 1,500 ft
VFR

METAR KAXV 260304Z AUTO 18006KT 10SM VCTS SCT015 SCT032 SCT055 19/18 A2995 RMK AO2 LTG DSNT N THRU E

FAA Disclaimer: The data displayed is for advisory purposes only and is not to be used for flight planning or operations.